METAR Data

Data at: 1143 UTC 21 Apr 2021

METAR for:CYSJ (Saint John Arpt, NB, CN)
Text:CYSJ 211116Z 00000KT 15SM BKN071 05/05 A2990 RMK AC7 SLP131
Temperature: 5.0°C ( 41°F)
Dewpoint: 5.0°C ( 41°F) [RH = 100%]
Pressure (altimeter):29.90 inches Hg (1012.6 mb) [Sea level pressure: 1013.1 mb]
Winds:calm
Visibility: 15 sm ( 24 km)
Ceiling:7100 feet AGL
Clouds: broken clouds at 7100 feet AGL